Pagina principale
METAR-TAF:

METAR-TAF

Aeroporti :

Cefalonia, Grecia

Aeroporto di Cefalonia

latitudine: 38-07N, longitudine: 020-30E, altezza: 19 m

Osservazione

Il bollettino è stato emesso 47 minuti fa, alle 08:50 UTC
Vento 7 kt da sud
Temperature 23°C
Umidità 53%
Pressione 1016 hPa
Visibilità 10 km o più
Poco nuvoloso ad un'altezza di 1800 ft
Nubi sparse ad un'altezza di 7000 ft

METAR: LGKF 290850Z 18007KT 9999 FEW018 SCT070 23/13 Q1016

Ora: 12:37 (09:37 UTC)

Previsione

Il bollettino è stato emesso 1 ora e 37 minuti fa, alle 08:00 UTC
Previsione valida dal 29 alle 09 UTC al 29 alle 18 UTC
Vento 10 kt da nord
Visibilità 10 km o più
Poco nuvoloso ad un'altezza di 1800 ft
Nubi sparse ad un'altezza di 7000 ft
Probabilità 30% :
Temporaneamente
dal 29 alle 09 UTC al 29 alle 18 UTC
Visibilità: 5000 m
Nubi sparse ad un'altezza di 1500 ft
Nuvoloso ad un'altezza di 7000 ft
pioggia

TAF: LGKF 290800Z 2909/2918 36010KT 9999 FEW018 SCT070 PROB30 TEMPO 2909/2918 5000 RA SCT015 BKN070

Osservazioni e previsioni meteorologiche di più di 4000 aeroporti (messaggi METAR e TAF).

Le stazioni disponibili sono rappresentate dai dischi gialli e rossi sulla carta.

Puntare il mouse per vedere il nome della stazione.

Clicca sopra per visualizzare le osservazioni e previsioni meteorologiche.

Per cambiare la mappa : fare clic sui pulsanti verdi con una croce nera per ingrandire, il pulsante verde con un trattino per diminuire, o sulla freccia verde per le mappe adiacenti.


METAR-TAF: